Time,TemperatureF,DewpointF,PressureIn,WindDirection,WindDirectionDegrees,WindSpeedMPH,WindSpeedGustMPH,Humidity,HourlyPrecipIn,Conditions,Clouds,dailyrainin,SoftwareType,DateUTC
2013-05-01 00:03:00,65.0,54.0,-100.00,WNW,303,6.0,12.0,67,0.00,,,-99.99,,2013-05-01 04:03:00,
2013-05-01 00:12:00,65.0,54.0,-100.00,WNW,295,6.0,12.0,67,0.00,,,-99.99,,2013-05-01 04:12:00,
2013-05-01 00:22:00,65.0,52.0,-100.00,WNW,297,6.0,12.0,66,0.00,,,-99.99,,2013-05-01 04:22:00,
2013-05-01 00:32:00,65.0,54.0,-100.00,WNW,290,6.0,12.0,68,0.00,,,-99.99,,2013-05-01 04:32:00,
2013-05-01 00:43:00,64.0,54.0,-100.00,NNW,336,5.0,12.0,71,0.00,,,-99.99,,2013-05-01 04:43:00,
2013-05-01 00:52:00,65.0,54.0,-100.00,West,272,6.0,12.0,69,0.00,,,-99.99,,2013-05-01 04:52:00,
2013-05-01 01:02:00,65.0,54.0,-100.00,NW,316,7.0,12.0,69,0.00,,,-99.99,,2013-05-01 05:02:00,
2013-05-01 01:12:00,64.0,54.0,-100.00,NW,310,7.0,12.0,71,0.00,,,-99.99,,2013-05-01 05:12:00,
2013-05-01 01:21:00,64.0,54.0,-100.00,WNW,288,8.0,12.0,71,0.00,,,-99.99,,2013-05-01 05:21:00,
2013-05-01 01:32:00,62.0,52.0,-100.00,West,280,6.0,12.0,71,0.00,,,-99.99,,2013-05-01 05:32:00,
2013-05-01 01:42:00,63.0,52.0,-100.00,NW,306,6.0,12.0,71,0.00,,,-99.99,,2013-05-01 05:42:00,
2013-05-01 01:52:00,62.0,52.0,-100.00,West,276,6.0,12.0,72,0.00,,,-99.99,,2013-05-01 05:52:00,
2013-05-01 02:02:00,63.0,54.0,-100.00,WNW,300,6.0,12.0,73,0.00,,,-99.99,,2013-05-01 06:02:00,
2013-05-01 02:12:00,62.0,52.0,-100.00,WNW,297,6.0,12.0,73,0.00,,,-99.99,,2013-05-01 06:12:00,
2013-05-01 02:22:00,60.0,52.0,-100.00,WNW,296,6.0,12.0,75,0.00,,,-99.99,,2013-05-01 06:22:00,
2013-05-01 02:32:00,60.0,52.0,-100.00,WNW,303,6.0,12.0,75,0.00,,,-99.99,,2013-05-01 06:32:00,
2013-05-01 02:42:00,60.0,52.0,-100.00,NW,307,6.0,12.0,76,0.00,,,-99.99,,2013-05-01 06:42:00,
2013-05-01 02:51:00,60.0,52.0,-100.00,NW,313,6.0,12.0,75,0.00,,,-99.99,,2013-05-01 06:51:00,
2013-05-01 03:01:00,60.0,52.0,-100.00,WNW,289,5.0,12.0,77,0.00,,,-99.99,,2013-05-01 07:01:00,
2013-05-01 03:11:00,59.0,52.0,-100.00,WNW,295,5.0,12.0,77,0.00,,,-99.99,,2013-05-01 07:11:00,
2013-05-01 03:21:00,59.0,50.0,-100.00,WNW,296,6.0,12.0,76,0.00,,,-99.99,,2013-05-01 07:21:00,
2013-05-01 03:32:00,59.0,52.0,-100.00,WNW,292,5.0,12.0,78,0.00,,,-99.99,,2013-05-01 07:32:00,
2013-05-01 03:42:00,60.0,52.0,-100.00,NNW,341,6.0,12.0,78,0.00,,,-99.99,,2013-05-01 07:42:00,
2013-05-01 03:52:00,60.0,52.0,-100.00,NW,310,5.0,12.0,78,0.00,,,-99.99,,2013-05-01 07:52:00,
2013-05-01 04:02:00,59.0,52.0,-100.00,NW,307,4.0,4.0,80,0.00,,,-99.99,,2013-05-01 08:02:00,
2013-05-01 04:12:00,56.0,48.0,-100.00,WNW,302,5.0,6.0,78,0.00,,,-99.99,,2013-05-01 08:12:00,
2013-05-01 04:22:00,58.0,52.0,-100.00,WNW,303,4.0,6.0,80,0.00,,,-99.99,,2013-05-01 08:22:00,
2013-05-01 04:32:00,59.0,52.0,-100.00,WNW,299,4.0,6.0,81,0.00,,,-99.99,,2013-05-01 08:32:00,
2013-05-01 04:42:00,59.0,52.0,-100.00,NW,304,3.0,6.0,81,0.00,,,-99.99,,2013-05-01 08:42:00,
2013-05-01 04:53:00,58.0,52.0,-100.00,SW,218,2.0,6.0,82,0.00,,,-99.99,,2013-05-01 08:53:00,
2013-05-01 05:01:00,58.0,52.0,-100.00,WNW,293,1.0,6.0,82,0.00,,,-99.99,,2013-05-01 09:01:00,
2013-05-01 05:12:00,58.0,52.0,-100.00,WNW,295,1.0,6.0,82,0.00,,,-99.99,,2013-05-01 09:12:00,
2013-05-01 05:21:00,58.0,52.0,-100.00,WSW,244,2.0,6.0,84,0.00,,,-99.99,,2013-05-01 09:21:00,
2013-05-01 05:33:00,58.0,52.0,-100.00,WNW,295,2.0,6.0,82,0.00,,,-99.99,,2013-05-01 09:33:00,
2013-05-01 05:43:00,56.0,50.0,-100.00,WNW,293,2.0,6.0,82,0.00,,,-99.99,,2013-05-01 09:43:00,
2013-05-01 05:53:00,58.0,52.0,-100.00,NW,313,2.0,6.0,84,0.00,,,-99.99,,2013-05-01 09:53:00,
2013-05-01 06:03:00,56.0,50.0,-100.00,West,280,3.0,6.0,84,0.00,,,-99.99,,2013-05-01 10:03:00,
2013-05-01 06:12:00,57.0,52.0,-100.00,NW,314,2.0,6.0,84,0.00,,,-99.99,,2013-05-01 10:12:00,
2013-05-01 06:22:00,57.0,52.0,-100.00,NW,316,2.0,6.0,84,0.00,,,-99.99,,2013-05-01 10:22:00,
2013-05-01 06:33:00,56.0,52.0,-100.00,WSW,245,2.0,6.0,85,0.00,,,-99.99,,2013-05-01 10:33:00,
2013-05-01 06:42:00,56.0,50.0,-100.00,WNW,299,3.0,6.0,85,0.00,,,-99.99,,2013-05-01 10:42:00,
2013-05-01 06:52:00,56.0,50.0,-100.00,WNW,296,4.0,6.0,84,0.00,,,-99.99,,2013-05-01 10:52:00,
2013-05-01 07:02:00,56.0,50.0,-100.00,NW,312,4.0,6.0,84,0.00,,,-99.99,,2013-05-01 11:02:00,
2013-05-01 07:11:00,56.0,50.0,-100.00,WNW,292,4.0,6.0,84,0.00,,,-99.99,,2013-05-01 11:11:00,
2013-05-01 07:22:00,56.0,50.0,-100.00,WNW,300,3.0,6.0,84,0.00,,,-99.99,,2013-05-01 11:22:00,
2013-05-01 07:32:00,56.0,50.0,-100.00,WNW,297,3.0,6.0,84,0.00,,,-99.99,,2013-05-01 11:32:00,
2013-05-01 07:42:00,56.0,50.0,-100.00,WNW,290,4.0,6.0,82,0.00,,,-99.99,,2013-05-01 11:42:00,
2013-05-01 07:52:00,57.0,50.0,-100.00,NW,306,5.0,6.0,82,0.00,,,-99.99,,2013-05-01 11:52:00,
2013-05-01 08:01:00,57.0,50.0,-100.00,WNW,299,6.0,6.0,81,0.00,,,-99.99,,2013-05-01 12:01:00,
2013-05-01 08:11:00,57.0,50.0,-100.00,WNW,289,6.0,8.0,81,0.00,,,-99.99,,2013-05-01 12:11:00,
2013-05-01 08:21:00,57.0,50.0,-100.00,WNW,290,7.0,10.0,80,0.00,,,-99.99,,2013-05-01 12:21:00,
2013-05-01 08:32:00,58.0,50.0,-100.00,WNW,297,8.0,10.0,78,0.00,,,-99.99,,2013-05-01 12:32:00,
2013-05-01 08:42:00,58.0,50.0,-100.00,NW,306,9.0,12.0,78,0.00,,,-99.99,,2013-05-01 12:42:00,
2013-05-01 08:52:00,58.0,50.0,-100.00,West,269,8.0,12.0,78,0.00,,,-99.99,,2013-05-01 12:52:00,
2013-05-01 09:01:00,59.0,52.0,-100.00,WNW,293,8.0,12.0,78,0.00,,,-99.99,,2013-05-01 13:01:00,
2013-05-01 09:11:00,60.0,52.0,-100.00,WNW,297,7.0,12.0,75,0.00,,,-99.99,,2013-05-01 13:11:00,
2013-05-01 09:22:00,60.0,52.0,-100.00,WNW,293,7.0,12.0,76,0.00,,,-99.99,,2013-05-01 13:22:00,
2013-05-01 09:32:00,61.0,52.0,-100.00,NNE,14,6.0,12.0,73,0.00,,,-99.99,,2013-05-01 13:32:00,
2013-05-01 09:42:00,62.0,52.0,-100.00,WNW,282,6.0,12.0,72,0.00,,,-99.99,,2013-05-01 13:42:00,
2013-05-01 09:52:00,63.0,52.0,-100.00,NW,323,6.0,12.0,72,0.00,,,-99.99,,2013-05-01 13:52:00,
2013-05-01 10:02:00,63.0,52.0,-100.00,North,355,5.0,12.0,68,0.00,,,-99.99,,2013-05-01 14:02:00,
2013-05-01 10:11:00,64.0,52.0,-100.00,NW,314,6.0,12.0,68,0.00,,,-99.99,,2013-05-01 14:11:00,
2013-05-01 10:22:00,64.0,52.0,-100.00,NW,319,5.0,12.0,67,0.00,,,-99.99,,2013-05-01 14:22:00,
2013-05-01 10:32:00,65.0,54.0,-100.00,North,11,3.0,12.0,67,0.00,,,-99.99,,2013-05-01 14:32:00,
2013-05-01 10:42:00,65.0,54.0,-100.00,North,354,5.0,12.0,66,0.00,,,-99.99,,2013-05-01 14:42:00,
2013-05-01 10:52:00,65.0,52.0,-100.00,WNW,292,6.0,12.0,63,0.00,,,-99.99,,2013-05-01 14:52:00,
2013-05-01 11:01:00,67.0,54.0,-100.00,North,11,7.0,12.0,63,0.00,,,-99.99,,2013-05-01 15:01:00,
2013-05-01 11:11:00,68.0,54.0,-100.00,North,358,4.0,12.0,63,0.00,,,-99.99,,2013-05-01 15:11:00,
2013-05-01 11:21:00,69.0,54.0,-100.00,East,100,6.0,12.0,60,0.00,,,-99.99,,2013-05-01 15:21:00,
2013-05-01 11:33:00,68.0,52.0,-100.00,NNE,16,6.0,12.0,60,0.00,,,-99.99,,2013-05-01 15:33:00,
2013-05-01 11:43:00,68.0,54.0,-100.00,NNE,28,5.0,12.0,62,0.00,,,-99.99,,2013-05-01 15:43:00,
2013-05-01 11:53:00,69.0,54.0,-100.00,North,352,4.0,12.0,60,0.00,,,-99.99,,2013-05-01 15:53:00,
2013-05-01 12:03:00,71.0,54.0,-100.00,ENE,64,2.0,12.0,58,0.00,,,-99.99,,2013-05-01 16:03:00,
2013-05-01 12:12:00,71.0,55.0,-100.00,WNW,295,2.0,12.0,59,0.00,,,-99.99,,2013-05-01 16:12:00,
2013-05-01 12:22:00,71.0,55.0,-100.00,North,357,4.0,12.0,58,0.00,,,-99.99,,2013-05-01 16:22:00,
2013-05-01 12:32:00,72.0,54.0,-100.00,ENE,72,3.0,12.0,56,0.00,,,-99.99,,2013-05-01 16:32:00,
2013-05-01 12:42:00,71.0,55.0,-100.00,West,259,4.0,12.0,58,0.00,,,-99.99,,2013-05-01 16:42:00,
2013-05-01 12:53:00,73.0,55.0,-100.00,NE,46,2.0,12.0,55,0.00,,,-99.99,,2013-05-01 16:53:00,
2013-05-01 13:02:00,72.0,54.0,-100.00,NW,307,1.0,12.0,56,0.00,,,-99.99,,2013-05-01 17:02:00,
2013-05-01 13:12:00,74.0,55.0,-100.00,West,278,1.0,12.0,54,0.00,,,-99.99,,2013-05-01 17:12:00,
2013-05-01 13:22:00,74.0,55.0,-100.00,West,272,2.0,12.0,54,0.00,,,-99.99,,2013-05-01 17:22:00,
2013-05-01 13:32:00,76.0,57.0,-100.00,NNE,28,2.0,12.0,55,0.00,,,-99.99,,2013-05-01 17:32:00,
2013-05-01 13:42:00,74.0,55.0,-100.00,NW,326,4.0,12.0,53,0.00,,,-99.99,,2013-05-01 17:42:00,
2013-05-01 13:52:00,75.0,55.0,-100.00,NW,312,4.0,12.0,53,0.00,,,-99.99,,2013-05-01 17:52:00,
2013-05-01 14:01:00,75.0,54.0,-100.00,North,9,5.0,12.0,50,0.00,,,-99.99,,2013-05-01 18:01:00,
2013-05-01 14:11:00,77.0,55.0,-100.00,WNW,283,4.0,12.0,50,0.00,,,-99.99,,2013-05-01 18:11:00,
2013-05-01 14:22:00,75.0,54.0,-100.00,WSW,256,6.0,12.0,50,0.00,,,-99.99,,2013-05-01 18:22:00,
2013-05-01 14:32:00,76.0,54.0,-100.00,NW,310,5.0,12.0,49,0.00,,,-99.99,,2013-05-01 18:32:00,
2013-05-01 14:42:00,76.0,54.0,-100.00,WNW,292,6.0,12.0,47,0.00,,,-99.99,,2013-05-01 18:42:00,
2013-05-01 14:52:00,77.0,54.0,-100.00,NW,324,7.0,12.0,46,0.00,,,-99.99,,2013-05-01 18:52:00,
2013-05-01 15:02:00,77.0,54.0,-100.00,West,264,9.0,12.0,46,0.00,,,-99.99,,2013-05-01 19:02:00,
2013-05-01 15:11:00,77.0,55.0,-100.00,NW,306,7.0,12.0,49,0.00,,,-99.99,,2013-05-01 19:11:00,
2013-05-01 15:22:00,77.0,50.0,-100.00,NW,316,7.0,12.0,41,0.00,,,-99.99,,2013-05-01 19:22:00,
2013-05-01 15:32:00,77.0,52.0,-100.00,WNW,283,7.0,12.0,42,0.00,,,-99.99,,2013-05-01 19:32:00,
2013-05-01 15:43:00,78.0,52.0,-100.00,West,278,5.0,12.0,42,0.00,,,-99.99,,2013-05-01 19:43:00,
2013-05-01 15:52:00,78.0,52.0,-100.00,North,357,5.0,12.0,40,0.00,,,-99.99,,2013-05-01 19:52:00,
2013-05-01 16:02:00,78.0,50.0,-100.00,West,268,7.0,12.0,38,0.00,,,-99.99,,2013-05-01 20:02:00,
2013-05-01 16:11:00,77.0,48.0,-100.00,NW,324,8.0,12.0,37,0.00,,,-99.99,,2013-05-01 20:11:00,
2013-05-01 16:21:00,78.0,48.0,-100.00,WNW,289,7.0,12.0,38,0.00,,,-99.99,,2013-05-01 20:21:00,
2013-05-01 16:32:00,78.0,50.0,-100.00,WNW,295,6.0,12.0,38,0.00,,,-99.99,,2013-05-01 20:32:00,
2013-05-01 16:42:00,78.0,52.0,-100.00,WNW,303,7.0,12.0,41,0.00,,,-99.99,,2013-05-01 20:42:00,
2013-05-01 16:52:00,80.0,50.0,-100.00,NW,309,6.0,12.0,37,0.00,,,-99.99,,2013-05-01 20:52:00,
2013-05-01 17:01:00,78.0,48.0,-100.00,WNW,297,5.0,12.0,38,0.00,,,-99.99,,2013-05-01 21:01:00,
2013-05-01 17:11:00,79.0,52.0,-100.00,WNW,296,6.0,12.0,40,0.00,,,-99.99,,2013-05-01 21:11:00,
2013-05-01 17:22:00,79.0,52.0,-100.00,NW,316,6.0,12.0,41,0.00,,,-99.99,,2013-05-01 21:22:00,
2013-05-01 17:32:00,79.0,50.0,-100.00,North,354,6.0,12.0,38,0.00,,,-99.99,,2013-05-01 21:32:00,
2013-05-01 17:43:00,79.0,50.0,-100.00,NNW,343,6.0,12.0,37,0.00,,,-99.99,,2013-05-01 21:43:00,
2013-05-01 17:53:00,79.0,46.0,-100.00,NW,324,4.0,12.0,34,0.00,,,-99.99,,2013-05-01 21:53:00,
2013-05-01 18:03:00,78.0,50.0,-100.00,WNW,302,7.0,12.0,38,0.00,,,-99.99,,2013-05-01 22:03:00,
2013-05-01 18:12:00,79.0,46.0,-100.00,NW,317,6.0,12.0,33,0.00,,,-99.99,,2013-05-01 22:12:00,
2013-05-01 18:23:00,78.0,52.0,-100.00,West,272,6.0,12.0,40,0.00,,,-99.99,,2013-05-01 22:23:00,
2013-05-01 18:33:00,78.0,50.0,-100.00,NNW,345,6.0,12.0,38,0.00,,,-99.99,,2013-05-01 22:33:00,
2013-05-01 18:42:00,77.0,48.0,-100.00,WNW,296,7.0,12.0,37,0.00,,,-99.99,,2013-05-01 22:42:00,
2013-05-01 18:52:00,78.0,48.0,-100.00,WNW,283,6.0,12.0,37,0.00,,,-99.99,,2013-05-01 22:52:00,
2013-05-01 19:02:00,77.0,46.0,-100.00,NW,319,6.0,12.0,36,0.00,,,-99.99,,2013-05-01 23:02:00,
2013-05-01 19:12:00,77.0,48.0,-100.00,WNW,303,5.0,12.0,38,0.00,,,-99.99,,2013-05-01 23:12:00,
2013-05-01 19:21:00,77.0,50.0,-100.00,West,275,5.0,12.0,41,0.00,,,-99.99,,2013-05-01 23:21:00,
2013-05-01 19:32:00,77.0,48.0,-100.00,WNW,285,7.0,12.0,38,0.00,,,-99.99,,2013-05-01 23:32:00,
2013-05-01 19:42:00,77.0,48.0,-100.00,West,266,5.0,12.0,38,0.00,,,-99.99,,2013-05-01 23:42:00,
2013-05-01 19:52:00,77.0,50.0,-100.00,West,273,4.0,12.0,40,0.00,,,-99.99,,2013-05-01 23:52:00,
2013-05-01 20:01:00,77.0,50.0,-100.00,WSW,258,4.0,12.0,41,0.00,,,-99.99,,2013-05-02 00:01:00,
2013-05-01 20:11:00,76.0,52.0,-100.00,West,280,3.0,12.0,44,0.00,,,-99.99,,2013-05-02 00:11:00,
2013-05-01 20:21:00,75.0,50.0,-100.00,WSW,248,4.0,12.0,42,0.00,,,-99.99,,2013-05-02 00:21:00,
2013-05-01 20:32:00,75.0,50.0,-100.00,WNW,286,4.0,12.0,42,0.00,,,-99.99,,2013-05-02 00:32:00,
2013-05-01 20:42:00,74.0,50.0,-100.00,WNW,283,3.0,12.0,44,0.00,,,-99.99,,2013-05-02 00:42:00,
2013-05-01 20:52:00,74.0,54.0,-100.00,WNW,297,1.0,12.0,51,0.00,,,-99.99,,2013-05-02 00:52:00,
2013-05-01 21:01:00,73.0,50.0,-100.00,WSW,255,2.0,12.0,45,0.00,,,-99.99,,2013-05-02 01:01:00,
2013-05-01 21:11:00,73.0,54.0,-100.00,WNW,286,2.0,12.0,54,0.00,,,-99.99,,2013-05-02 01:11:00,
2013-05-01 21:21:00,73.0,54.0,-100.00,WNW,286,2.0,12.0,54,0.00,,,-99.99,,2013-05-02 01:21:00,
2013-05-01 21:32:00,72.0,50.0,-100.00,WSW,245,2.0,12.0,49,0.00,,,-99.99,,2013-05-02 01:32:00,
2013-05-01 21:42:00,73.0,52.0,-100.00,WSW,258,4.0,12.0,49,0.00,,,-99.99,,2013-05-02 01:42:00,
2013-05-01 21:52:00,72.0,50.0,-100.00,West,261,4.0,12.0,49,0.00,,,-99.99,,2013-05-02 01:52:00,
2013-05-01 22:02:00,72.0,50.0,-100.00,West,261,4.0,12.0,49,0.00,,,-99.99,,2013-05-02 02:02:00,
2013-05-01 22:12:00,70.0,50.0,-100.00,WNW,293,3.0,12.0,51,0.00,,,-99.99,,2013-05-02 02:12:00,
2013-05-01 22:21:00,70.0,54.0,-100.00,NNE,33,1.0,12.0,56,0.00,,,-99.99,,2013-05-02 02:21:00,
2013-05-01 22:32:00,70.0,52.0,-100.00,NNW,334,0.0,12.0,54,0.00,,,-99.99,,2013-05-02 02:32:00,
2013-05-01 22:42:00,70.0,52.0,-100.00,NNW,334,0.0,12.0,54,0.00,,,-99.99,,2013-05-02 02:42:00,
2013-05-01 22:51:00,70.0,52.0,-100.00,NNW,334,0.0,12.0,54,0.00,,,-99.99,,2013-05-02 02:51:00,
2013-05-01 23:01:00,67.0,52.0,-100.00,SE,127,0.0,12.0,60,0.00,,,-99.99,,2013-05-02 03:01:00,
2013-05-01 23:11:00,68.0,52.0,-100.00,WNW,296,0.0,12.0,60,0.00,,,-99.99,,2013-05-02 03:11:00,
2013-05-01 23:22:00,65.0,50.0,-100.00,West,271,0.0,12.0,62,0.00,,,-99.99,,2013-05-02 03:22:00,
2013-05-01 23:33:00,65.0,55.0,-100.00,NNE,15,0.0,12.0,72,0.00,,,-99.99,,2013-05-02 03:33:00,
2013-05-01 23:43:00,65.0,55.0,-100.00,NNE,15,0.0,12.0,72,0.00,,,-99.99,,2013-05-02 03:43:00,
2013-05-01 23:53:00,65.0,55.0,-100.00,West,275,1.0,12.0,73,0.00,,,-99.99,,2013-05-02 03:53:00,